createdAt,value
2016-09-14T00:00:18.910Z,1008.83
2016-09-14T00:01:19.070Z,1008.84
2016-09-14T00:02:18.823Z,1008.88
2016-09-14T00:03:18.781Z,1008.89
2016-09-14T00:04:18.742Z,1008.88
2016-09-14T00:05:18.692Z,1008.86
2016-09-14T00:06:18.661Z,1008.88
2016-09-14T00:07:18.607Z,1008.87
2016-09-14T00:08:18.568Z,1008.85
2016-09-14T00:09:18.527Z,1008.88
2016-09-14T00:10:18.481Z,1008.87
2016-09-14T00:11:18.438Z,1008.85
2016-09-14T00:12:18.402Z,1008.9
2016-09-14T00:13:18.362Z,1008.87
2016-09-14T00:14:18.315Z,1008.87
2016-09-14T00:15:18.273Z,1008.87
2016-09-14T00:16:18.230Z,1008.85
2016-09-14T00:17:18.186Z,1008.88
2016-09-14T00:18:18.144Z,1008.87
2016-09-14T00:19:18.108Z,1008.83
2016-09-14T00:20:18.060Z,1008.84
2016-09-14T00:21:18.029Z,1008.86
2016-09-14T00:22:17.971Z,1008.86
2016-09-14T00:23:17.938Z,1008.83
2016-09-14T00:24:17.885Z,1008.87
2016-09-14T00:25:17.847Z,1008.85
2016-09-14T00:26:17.804Z,1008.82
2016-09-14T00:27:17.762Z,1008.81
2016-09-14T00:28:17.716Z,1008.84
2016-09-14T00:29:17.680Z,1008.82
2016-09-14T00:30:17.628Z,1008.79
2016-09-14T00:31:17.591Z,1008.8
2016-09-14T00:32:17.552Z,1008.84
2016-09-14T00:33:17.506Z,1008.86
2016-09-14T00:34:17.460Z,1008.85
2016-09-14T00:35:17.413Z,1008.83
2016-09-14T00:36:17.369Z,1008.86
2016-09-14T00:37:17.340Z,1008.89
2016-09-14T00:38:17.294Z,1008.85
2016-09-14T00:39:17.248Z,1008.85
2016-09-14T00:40:17.206Z,1008.84
2016-09-14T00:41:17.162Z,1008.83
2016-09-14T00:42:17.118Z,1008.87
2016-09-14T00:43:17.072Z,1008.86
2016-09-14T00:44:17.034Z,1008.84
2016-09-14T00:45:16.994Z,1008.89
2016-09-14T00:46:16.945Z,1008.88
2016-09-14T00:47:16.903Z,1008.87
2016-09-14T00:48:16.913Z,1008.88
2016-09-14T00:49:16.821Z,1008.86
2016-09-14T00:50:16.774Z,1008.89
2016-09-14T00:51:16.939Z,1008.91
2016-09-14T00:52:16.697Z,1008.91
2016-09-14T00:53:16.648Z,1008.89
2016-09-14T00:54:16.601Z,1008.93
2016-09-14T00:55:16.763Z,1008.95
2016-09-14T00:56:16.524Z,1008.94
2016-09-14T00:57:16.475Z,1008.97
2016-09-14T00:58:16.430Z,1008.94
2016-09-14T00:59:16.391Z,1008.95
2016-09-14T01:00:16.351Z,1008.99
2016-09-14T01:01:16.304Z,1008.95
2016-09-14T01:02:16.261Z,1008.96
2016-09-14T01:03:16.217Z,1008.97
2016-09-14T01:04:16.183Z,1008.94
2016-09-14T01:05:16.130Z,1008.96
2016-09-14T01:06:16.087Z,1008.93
2016-09-14T01:07:16.046Z,1008.93
2016-09-14T01:08:16.006Z,1008.9
2016-09-14T01:09:15.953Z,1008.93
2016-09-14T01:10:15.913Z,1008.88
2016-09-14T01:11:15.875Z,1008.88
2016-09-14T01:12:15.824Z,1008.85
2016-09-14T01:13:15.787Z,1008.86
2016-09-14T01:14:15.742Z,1008.84
2016-09-14T01:15:15.706Z,1008.87
2016-09-14T01:16:15.659Z,1008.82
2016-09-14T01:17:15.614Z,1008.83
2016-09-14T01:18:15.573Z,1008.85
2016-09-14T01:19:15.531Z,1008.87
2016-09-14T01:20:15.485Z,1008.91
2016-09-14T01:21:15.439Z,1008.86
2016-09-14T01:22:15.410Z,1008.91
2016-09-14T01:23:15.356Z,1008.87
2016-09-14T01:24:15.320Z,1008.93
2016-09-14T01:25:15.476Z,1008.91
2016-09-14T01:26:15.229Z,1008.93
2016-09-14T01:27:15.584Z,1008.92
2016-09-14T01:28:15.342Z,1008.88
2016-09-14T01:29:15.096Z,1008.92
2016-09-14T01:30:15.056Z,1008.96
2016-09-14T01:31:15.013Z,1008.94
2016-09-14T01:32:15.170Z,1008.91
2016-09-14T01:33:14.925Z,1008.95
2016-09-14T01:34:14.883Z,1008.96
2016-09-14T01:35:14.840Z,1008.92
2016-09-14T01:36:14.795Z,1008.93
2016-09-14T01:37:14.757Z,1008.94
2016-09-14T01:38:14.707Z,1008.95
2016-09-14T01:39:14.669Z,1008.97
2016-09-14T01:40:14.651Z,1008.94
2016-09-14T01:41:14.594Z,1008.99
2016-09-14T01:42:14.533Z,1009.01
2016-09-14T01:43:14.494Z,1008.98
2016-09-14T01:44:14.462Z,1008.98
2016-09-14T01:45:14.409Z,1008.98
2016-09-14T01:46:14.367Z,1008.98
2016-09-14T01:47:14.336Z,1008.99
2016-09-14T01:48:14.277Z,1008.98
2016-09-14T01:49:14.241Z,1009.01
2016-09-14T01:50:14.196Z,1009.01
2016-09-14T01:51:14.148Z,1008.98
2016-09-14T01:52:14.117Z,1008.97
2016-09-14T01:53:14.061Z,1008.97
2016-09-14T01:54:14.021Z,1008.98
2016-09-14T01:55:13.978Z,1008.95
2016-09-14T01:56:13.943Z,1009
2016-09-14T01:57:13.891Z,1008.98
2016-09-14T01:58:13.850Z,1008.96
2016-09-14T01:59:13.810Z,1008.97
2016-09-14T02:00:13.761Z,1008.95
2016-09-14T02:01:13.724Z,1008.94
2016-09-14T02:02:13.688Z,1008.94
2016-09-14T02:03:13.838Z,1008.94
2016-09-14T02:04:13.596Z,1008.93
2016-09-14T02:05:13.544Z,1008.87
2016-09-14T02:06:13.511Z,1008.92
2016-09-14T02:07:14.662Z,1008.89
2016-09-14T02:08:13.410Z,1008.91
2016-09-14T02:09:13.372Z,1008.92
2016-09-14T02:10:13.334Z,1008.92
2016-09-14T02:11:13.285Z,1008.93
2016-09-14T02:12:13.244Z,1008.92
2016-09-14T02:13:13.212Z,1008.9
2016-09-14T02:14:13.156Z,1008.92
2016-09-14T02:15:13.110Z,1008.91
2016-09-14T02:16:13.070Z,1008.92
2016-09-14T02:17:13.029Z,1008.96
2016-09-14T02:18:12.983Z,1008.92
2016-09-14T02:19:12.933Z,1008.89
2016-09-14T02:20:12.897Z,1008.93
2016-09-14T02:21:12.857Z,1008.9
2016-09-14T02:22:12.806Z,1008.93
2016-09-14T02:23:12.767Z,1008.92
2016-09-14T02:24:12.720Z,1008.93
2016-09-14T02:25:12.690Z,1008.97
2016-09-14T02:26:12.644Z,1008.94
2016-09-14T02:27:12.592Z,1008.95
2016-09-14T02:28:12.546Z,1008.94
2016-09-14T02:29:12.508Z,1008.95
2016-09-14T02:30:12.462Z,1008.94
2016-09-14T02:31:12.422Z,1008.93
2016-09-14T02:32:12.378Z,1008.92
2016-09-14T02:33:12.330Z,1008.88
2016-09-14T02:34:12.289Z,1008.9
2016-09-14T02:35:12.248Z,1008.87
2016-09-14T02:36:12.198Z,1008.9
2016-09-14T02:37:12.157Z,1008.86
2016-09-14T02:38:12.316Z,1008.84
2016-09-14T02:39:12.072Z,1008.88
2016-09-14T02:40:12.024Z,1008.84
2016-09-14T02:41:11.982Z,1008.87
2016-09-14T02:42:11.938Z,1008.94
2016-09-14T02:43:11.894Z,1008.92
2016-09-14T02:44:11.853Z,1008.84
2016-09-14T02:45:11.808Z,1008.87
2016-09-14T02:46:11.879Z,1008.86
2016-09-14T02:47:11.728Z,1008.82
2016-09-14T02:48:11.676Z,1008.83
2016-09-14T02:49:11.647Z,1008.88
2016-09-14T02:50:11.595Z,1008.9
2016-09-14T02:51:11.549Z,1008.88
2016-09-14T02:52:11.503Z,1008.88
2016-09-14T02:53:11.467Z,1008.87
2016-09-14T02:54:11.414Z,1008.9
2016-09-14T02:55:11.371Z,1008.89
2016-09-14T02:56:11.332Z,1008.91
2016-09-14T02:57:11.299Z,1008.88
2016-09-14T02:58:11.245Z,1008.92
2016-09-14T02:59:11.203Z,1008.91
2016-09-14T03:00:11.149Z,1008.91
2016-09-14T03:01:11.113Z,1008.93
2016-09-14T03:02:11.070Z,1008.95
2016-09-14T03:03:11.022Z,1008.94
2016-09-14T03:04:10.981Z,1008.94
2016-09-14T03:05:10.946Z,1008.96
2016-09-14T03:06:10.893Z,1008.93
2016-09-14T03:07:10.850Z,1008.98
2016-09-14T03:08:10.808Z,1009
2016-09-14T03:09:10.767Z,1008.97
2016-09-14T03:10:10.714Z,1008.99
2016-09-14T03:11:10.673Z,1008.98
2016-09-14T03:12:10.631Z,1008.98
2016-09-14T03:13:10.596Z,1008.99
2016-09-14T03:14:10.544Z,1008.98
2016-09-14T03:15:10.499Z,1008.97
2016-09-14T03:16:10.457Z,1008.98
2016-09-14T03:17:10.410Z,1008.95
2016-09-14T03:18:10.583Z,1008.96
2016-09-14T03:19:11.538Z,1008.96
2016-09-14T03:20:10.282Z,1008.98
2016-09-14T03:21:10.241Z,1008.94
2016-09-14T03:22:10.199Z,1008.99
2016-09-14T03:23:10.151Z,1008.95
2016-09-14T03:24:10.139Z,1008.92
2016-09-14T03:25:10.069Z,1008.95
2016-09-14T03:26:10.103Z,1008.96
2016-09-14T03:27:09.977Z,1008.96
2016-09-14T03:28:09.932Z,1008.96
2016-09-14T03:29:09.886Z,1008.95
2016-09-14T03:30:09.856Z,1008.92
2016-09-14T03:31:09.804Z,1008.94
2016-09-14T03:32:09.755Z,1008.93
2016-09-14T03:33:09.720Z,1008.9
2016-09-14T03:34:09.724Z,1008.93
2016-09-14T03:35:09.632Z,1008.93
2016-09-14T03:36:09.593Z,1008.94
2016-09-14T03:37:09.585Z,1008.92
2016-09-14T03:38:09.536Z,1008.95
2016-09-14T03:39:09.461Z,1008.97
2016-09-14T03:40:09.416Z,1008.94
2016-09-14T03:41:09.367Z,1008.95
2016-09-14T03:42:09.331Z,1008.93
2016-09-14T03:43:09.281Z,1008.94
2016-09-14T03:44:09.250Z,1008.91
2016-09-14T03:45:09.193Z,1008.96
2016-09-14T03:46:09.153Z,1008.88
2016-09-14T03:47:09.128Z,1008.94
2016-09-14T03:48:09.068Z,1008.9
2016-09-14T03:49:09.021Z,1008.9
2016-09-14T03:50:08.976Z,1008.92
2016-09-14T03:51:08.936Z,1008.94
2016-09-14T03:52:08.893Z,1008.97
2016-09-14T03:53:08.845Z,1008.95
2016-09-14T03:54:08.803Z,1008.95
2016-09-14T03:55:08.763Z,1008.96
2016-09-14T03:56:08.716Z,1008.96
2016-09-14T03:57:08.672Z,1008.94
2016-09-14T03:58:08.631Z,1008.96
2016-09-14T03:59:08.591Z,1008.98
2016-09-14T04:00:08.538Z,1008.98
2016-09-14T04:01:08.498Z,1008.93
2016-09-14T04:02:08.460Z,1008.98
2016-09-14T04:03:08.416Z,1008.96
2016-09-14T04:04:08.366Z,1008.93
2016-09-14T04:05:08.325Z,1008.93
2016-09-14T04:06:08.286Z,1008.98
2016-09-14T04:07:08.245Z,1008.92
2016-09-14T04:08:08.195Z,1008.93
2016-09-14T04:09:08.155Z,1008.94
2016-09-14T04:10:08.102Z,1008.93
2016-09-14T04:11:08.058Z,1008.94
2016-09-14T04:12:08.022Z,1008.91
2016-09-14T04:13:07.973Z,1008.93
2016-09-14T04:14:07.940Z,1008.92
2016-09-14T04:15:07.892Z,1008.93
2016-09-14T04:16:07.845Z,1008.92
2016-09-14T04:17:07.800Z,1008.94
2016-09-14T04:18:07.773Z,1008.92
2016-09-14T04:19:07.713Z,1008.92
2016-09-14T04:20:07.670Z,1008.89
2016-09-14T04:21:07.828Z,1008.89
2016-09-14T04:22:07.783Z,1008.89
2016-09-14T04:23:07.564Z,1008.92
2016-09-14T04:24:07.491Z,1008.89
2016-09-14T04:25:07.461Z,1008.86
2016-09-14T04:26:07.406Z,1008.88
2016-09-14T04:27:07.365Z,1008.88
2016-09-14T04:28:07.318Z,1008.9
2016-09-14T04:29:07.275Z,1008.88
2016-09-14T04:30:07.234Z,1008.86
2016-09-14T04:31:07.196Z,1008.93
2016-09-14T04:32:07.148Z,1008.88
2016-09-14T04:33:07.114Z,1008.91
2016-09-14T04:34:07.071Z,1008.91
2016-09-14T04:35:07.019Z,1008.93
2016-09-14T04:36:06.967Z,1008.94
2016-09-14T04:37:06.929Z,1008.94
2016-09-14T04:38:06.889Z,1008.91
2016-09-14T04:39:06.836Z,1008.95
2016-09-14T04:40:06.797Z,1008.96
2016-09-14T04:41:06.951Z,1008.94
2016-09-14T04:42:06.704Z,1008.97
2016-09-14T04:43:06.664Z,1008.95
2016-09-14T04:44:06.628Z,1008.97
2016-09-14T04:45:06.586Z,1008.96
2016-09-14T04:46:06.735Z,1008.95
2016-09-14T04:47:06.496Z,1008.99
2016-09-14T04:48:06.442Z,1009
2016-09-14T04:49:06.405Z,1008.98
2016-09-14T04:50:06.360Z,1008.96
2016-09-14T04:51:06.314Z,1008.96
2016-09-14T04:52:06.270Z,1008.98
2016-09-14T04:53:06.231Z,1008.98
2016-09-14T04:54:06.192Z,1009.01
2016-09-14T04:55:06.141Z,1009
2016-09-14T04:56:06.111Z,1009.01
2016-09-14T04:57:06.066Z,1008.99
2016-09-14T04:58:06.013Z,1009
2016-09-14T04:59:05.965Z,1009.01
2016-09-14T05:00:05.917Z,1009
2016-09-14T05:01:05.888Z,1009
2016-09-14T05:02:05.834Z,1009.01
2016-09-14T05:03:05.796Z,1009
2016-09-14T05:04:05.750Z,1008.99
2016-09-14T05:05:05.708Z,1008.98
2016-09-14T05:06:05.664Z,1009.04
2016-09-14T05:07:05.621Z,1009.02
2016-09-14T05:08:05.574Z,1009.03
2016-09-14T05:09:05.534Z,1008.99
2016-09-14T05:10:05.692Z,1009.02
2016-09-14T05:11:05.452Z,1009.09
2016-09-14T05:12:05.399Z,1009.06
2016-09-14T05:13:05.617Z,1009.07
2016-09-14T05:14:05.310Z,1009.11
2016-09-14T05:15:05.478Z,1009.12
2016-09-14T05:16:05.228Z,1009.12
2016-09-14T05:17:05.175Z,1009.17
2016-09-14T05:18:05.340Z,1009.16
2016-09-14T05:19:05.094Z,1009.2
2016-09-14T05:20:05.047Z,1009.13
2016-09-14T05:21:05.005Z,1009.17
2016-09-14T05:22:04.965Z,1009.17
2016-09-14T05:23:04.922Z,1009.18
2016-09-14T05:24:04.876Z,1009.16
2016-09-14T05:25:05.032Z,1009.14
2016-09-14T05:26:04.794Z,1009.16
2016-09-14T05:27:04.943Z,1009.19
2016-09-14T05:28:04.701Z,1009.17
2016-09-14T05:29:04.659Z,1009.2
2016-09-14T05:30:04.620Z,1009.19
2016-09-14T05:31:04.581Z,1009.2
2016-09-14T05:32:04.525Z,1009.24
2016-09-14T05:33:04.490Z,1009.23
2016-09-14T05:34:04.443Z,1009.28
2016-09-14T05:35:04.601Z,1009.25
2016-09-14T05:36:04.356Z,1009.27
2016-09-14T05:37:04.312Z,1009.3
2016-09-14T05:38:04.477Z,1009.28
2016-09-14T05:39:04.224Z,1009.24
2016-09-14T05:40:04.182Z,1009.25
2016-09-14T05:41:04.138Z,1009.25
2016-09-14T05:42:04.098Z,1009.28
2016-09-14T05:43:04.075Z,1009.3
2016-09-14T05:44:04.006Z,1009.28
2016-09-14T05:45:04.165Z,1009.31
2016-09-14T05:46:04.123Z,1009.31
2016-09-14T05:47:03.875Z,1009.33
2016-09-14T05:48:03.826Z,1009.33
2016-09-14T05:49:03.792Z,1009.33
2016-09-14T05:50:03.743Z,1009.36
2016-09-14T05:51:03.703Z,1009.35
2016-09-14T05:52:03.653Z,1009.33
2016-09-14T05:53:03.608Z,1009.33
2016-09-14T05:54:03.771Z,1009.33
2016-09-14T05:55:03.730Z,1009.38
2016-09-14T05:56:03.481Z,1009.33
2016-09-14T05:57:03.439Z,1009.36
2016-09-14T05:58:03.387Z,1009.33
2016-09-14T05:59:03.348Z,1009.3
2016-09-14T06:00:03.308Z,1009.34
2016-09-14T06:01:03.263Z,1009.33
2016-09-14T06:02:03.422Z,1009.31
2016-09-14T06:03:03.177Z,1009.32
2016-09-14T06:04:03.138Z,1009.3
2016-09-14T06:05:03.085Z,1009.31
2016-09-14T06:06:03.041Z,1009.34
2016-09-14T06:07:03.006Z,1009.34
2016-09-14T06:08:02.960Z,1009.35
2016-09-14T06:09:02.912Z,1009.35
2016-09-14T06:10:02.874Z,1009.34
2016-09-14T06:11:02.823Z,1009.36
2016-09-14T06:12:02.990Z,1009.33
2016-09-14T06:13:02.737Z,1009.36
2016-09-14T06:14:02.697Z,1009.38
2016-09-14T06:15:02.653Z,1009.37
2016-09-14T06:16:02.610Z,1009.39
2016-09-14T06:17:02.563Z,1009.37
2016-09-14T06:18:02.517Z,1009.39
2016-09-14T06:19:02.478Z,1009.38
2016-09-14T06:20:02.636Z,1009.35
2016-09-14T06:21:02.392Z,1009.38
2016-09-14T06:22:02.346Z,1009.43
2016-09-14T06:23:02.323Z,1009.39
2016-09-14T06:24:02.263Z,1009.42
2016-09-14T06:25:02.225Z,1009.42
2016-09-14T06:26:02.173Z,1009.41
2016-09-14T06:27:02.126Z,1009.41
2016-09-14T06:28:02.080Z,1009.44
2016-09-14T06:29:02.040Z,1009.41
2016-09-14T06:30:01.999Z,1009.41
2016-09-14T06:31:01.962Z,1009.44
2016-09-14T06:32:01.916Z,1009.41
2016-09-14T06:33:01.882Z,1009.42
2016-09-14T06:34:01.838Z,1009.43
2016-09-14T06:35:01.779Z,1009.48
2016-09-14T06:36:01.745Z,1009.46
2016-09-14T06:37:01.698Z,1009.47
2016-09-14T06:38:01.649Z,1009.48
2016-09-14T06:39:01.615Z,1009.48
2016-09-14T06:40:01.568Z,1009.46
2016-09-14T06:41:01.526Z,1009.48
2016-09-14T06:42:01.490Z,1009.44
2016-09-14T06:43:01.432Z,1009.46
2016-09-14T06:44:01.396Z,1009.42
2016-09-14T06:45:01.348Z,1009.41
2016-09-14T06:46:01.298Z,1009.38
2016-09-14T06:47:01.262Z,1009.38
2016-09-14T06:48:01.223Z,1009.41
2016-09-14T06:49:01.170Z,1009.43
2016-09-14T06:50:01.133Z,1009.43
2016-09-14T06:51:01.087Z,1009.4
2016-09-14T06:52:01.250Z,1009.44
2016-09-14T06:53:01.227Z,1009.46
2016-09-14T06:54:00.989Z,1009.47
2016-09-14T06:55:00.919Z,1009.48
2016-09-14T06:56:00.882Z,1009.48
2016-09-14T06:57:00.831Z,1009.44
2016-09-14T06:58:01.039Z,1009.44
2016-09-14T06:59:00.751Z,1009.43
2016-09-14T07:00:00.703Z,1009.4
2016-09-14T07:01:00.688Z,1009.42
2016-09-14T07:02:00.633Z,1009.41
2016-09-14T07:03:00.585Z,1009.42
2016-09-14T07:04:00.535Z,1009.41
2016-09-14T07:05:00.508Z,1009.43
2016-09-14T07:06:00.484Z,1009.42
2016-09-14T07:07:00.646Z,1009.47
2016-09-14T07:08:00.388Z,1009.5
2016-09-14T07:09:00.334Z,1009.49
2016-09-14T07:10:00.288Z,1009.54
2016-09-14T07:11:00.261Z,1009.55
2016-09-14T07:12:00.237Z,1009.58
2016-09-14T07:13:00.189Z,1009.55
2016-09-14T07:14:00.146Z,1009.57
2016-09-14T07:15:00.096Z,1009.56
2016-09-14T07:16:00.056Z,1009.56
2016-09-14T07:17:00.024Z,1009.58
2016-09-14T07:17:59.961Z,1009.52
2016-09-14T07:18:59.923Z,1009.52
2016-09-14T07:19:59.868Z,1009.56
2016-09-14T07:21:00.027Z,1009.54
2016-09-14T07:21:59.784Z,1009.52
2016-09-14T07:22:59.763Z,1009.52
2016-09-14T07:23:59.902Z,1009.56
2016-09-14T07:24:59.657Z,1009.56
2016-09-14T07:26:00.938Z,1009.6
2016-09-14T07:26:59.575Z,1009.59
2016-09-14T07:27:59.547Z,1009.66
2016-09-14T07:28:59.546Z,1009.64
2016-09-14T07:29:59.437Z,1009.63
2016-09-14T07:30:59.403Z,1009.63
2016-09-14T07:31:59.352Z,1009.63
2016-09-14T07:32:59.313Z,1009.65
2016-09-14T07:33:59.272Z,1009.62
2016-09-14T07:34:59.244Z,1009.62
2016-09-14T07:35:59.185Z,1009.63
2016-09-14T07:36:59.135Z,1009.66
2016-09-14T07:37:59.096Z,1009.65
2016-09-14T07:38:59.256Z,1009.66
2016-09-14T07:39:59.035Z,1009.67
2016-09-14T07:40:58.988Z,1009.67
2016-09-14T07:41:58.928Z,1009.7
2016-09-14T07:42:58.895Z,1009.71
2016-09-14T07:43:58.840Z,1009.71
2016-09-14T07:44:58.796Z,1009.72
2016-09-14T07:45:58.753Z,1009.73
2016-09-14T07:46:58.709Z,1009.73
2016-09-14T07:47:58.659Z,1009.71
2016-09-14T07:48:58.644Z,1009.76
2016-09-14T07:49:58.803Z,1009.76
2016-09-14T07:50:58.558Z,1009.75
2016-09-14T07:51:58.502Z,1009.74
2016-09-14T07:52:58.523Z,1009.73
2016-09-14T07:53:58.442Z,1009.74
2016-09-14T07:54:58.407Z,1009.74
2016-09-14T07:55:58.350Z,1009.75
2016-09-14T07:56:58.324Z,1009.76
2016-09-14T07:57:58.257Z,1009.74
2016-09-14T07:58:58.224Z,1009.73
2016-09-14T07:59:58.174Z,1009.74
2016-09-14T08:00:58.155Z,1009.72
2016-09-14T08:01:58.121Z,1009.72
2016-09-14T08:02:58.048Z,1009.71
2016-09-14T08:03:58.009Z,1009.75
2016-09-14T08:04:57.953Z,1009.73
2016-09-14T08:05:57.929Z,1009.73
2016-09-14T08:06:57.875Z,1009.74
2016-09-14T08:07:57.829Z,1009.73
2016-09-14T08:08:57.796Z,1009.69
2016-09-14T08:09:57.823Z,1009.73
2016-09-14T08:10:57.695Z,1009.76
2016-09-14T08:11:57.689Z,1009.73
2016-09-14T08:12:57.611Z,1009.74
2016-09-14T08:13:57.574Z,1009.77
2016-09-14T08:14:57.547Z,1009.74
2016-09-14T08:15:57.494Z,1009.75
2016-09-14T08:16:57.470Z,1009.8
2016-09-14T08:17:57.410Z,1009.81
2016-09-14T08:18:57.367Z,1009.78
2016-09-14T08:19:58.033Z,1009.81
2016-09-14T08:20:57.279Z,1009.81
2016-09-14T08:21:57.461Z,1009.79
2016-09-14T08:22:57.209Z,1009.83
2016-09-14T08:23:57.158Z,1009.83
2016-09-14T08:24:57.138Z,1009.82
2016-09-14T08:25:57.080Z,1009.82
2016-09-14T08:26:57.035Z,1009.84
2016-09-14T08:27:57.003Z,1009.82
2016-09-14T08:28:56.952Z,1009.8
2016-09-14T08:29:56.913Z,1009.85
2016-09-14T08:30:56.871Z,1009.82
2016-09-14T08:31:56.828Z,1009.81
2016-09-14T08:32:56.778Z,1009.8
2016-09-14T08:33:56.742Z,1009.86
2016-09-14T08:34:56.695Z,1009.84
2016-09-14T08:35:56.658Z,1009.82
2016-09-14T08:36:56.619Z,1009.83
2016-09-14T08:37:56.593Z,1009.81
2016-09-14T08:38:56.545Z,1009.8
2016-09-14T08:39:56.495Z,1009.82
2016-09-14T08:40:56.453Z,1009.81
2016-09-14T08:41:56.417Z,1009.81
2016-09-14T08:42:56.371Z,1009.83
2016-09-14T08:43:56.331Z,1009.84
2016-09-14T08:44:56.292Z,1009.81
2016-09-14T08:45:56.276Z,1009.82
2016-09-14T08:46:56.414Z,1009.8
2016-09-14T08:47:56.171Z,1009.84
2016-09-14T08:48:56.130Z,1009.84
2016-09-14T08:49:56.109Z,1009.83
2016-09-14T08:50:56.247Z,1009.81
2016-09-14T08:51:56.023Z,1009.88
2016-09-14T08:52:55.978Z,1009.83
2016-09-14T08:53:55.954Z,1009.89
2016-09-14T08:54:56.495Z,1009.88
2016-09-14T08:55:56.241Z,1009.85
2016-09-14T08:56:55.801Z,1009.84
2016-09-14T08:57:55.769Z,1009.87
2016-09-14T08:58:55.721Z,1009.9
2016-09-14T08:59:56.293Z,1009.92
2016-09-14T09:00:55.654Z,1009.89
2016-09-14T09:01:55.802Z,1009.88
2016-09-14T09:02:55.563Z,1009.88
2016-09-14T09:03:55.527Z,1009.89
2016-09-14T09:04:55.472Z,1009.89
2016-09-14T09:05:55.434Z,1009.88
2016-09-14T09:06:55.442Z,1009.91
2016-09-14T09:07:55.362Z,1009.9
2016-09-14T09:08:55.319Z,1009.92
2016-09-14T09:09:55.276Z,1009.88
2016-09-14T09:10:55.236Z,1009.88
2016-09-14T09:11:55.191Z,1009.87
2016-09-14T09:12:55.150Z,1009.92
2016-09-14T09:13:55.110Z,1009.92
2016-09-14T09:14:55.065Z,1009.9
2016-09-14T09:15:55.044Z,1009.9
2016-09-14T09:16:54.983Z,1009.91
2016-09-14T09:17:54.953Z,1009.87
2016-09-14T09:18:54.908Z,1009.87
2016-09-14T09:19:54.862Z,1009.86
2016-09-14T09:20:54.988Z,1009.88
2016-09-14T09:21:54.791Z,1009.93
2016-09-14T09:22:54.769Z,1009.89
2016-09-14T09:23:54.730Z,1009.89
2016-09-14T09:24:54.673Z,1009.9
2016-09-14T09:25:54.626Z,1009.89
2016-09-14T09:26:54.590Z,1009.89
2016-09-14T09:27:54.534Z,1009.87
2016-09-14T09:28:54.505Z,1009.89
2016-09-14T09:29:54.470Z,1009.91
2016-09-14T09:30:54.430Z,1009.89
2016-09-14T09:31:54.376Z,1009.92
2016-09-14T09:32:54.352Z,1009.88
2016-09-14T09:33:54.297Z,1009.91
2016-09-14T09:34:54.261Z,1009.88
2016-09-14T09:35:54.241Z,1009.88
2016-09-14T09:36:54.184Z,1009.85
2016-09-14T09:37:54.191Z,1009.84
2016-09-14T09:38:54.093Z,1009.86
2016-09-14T09:39:54.110Z,1009.82
2016-09-14T09:40:54.214Z,1009.85
2016-09-14T09:41:53.978Z,1009.85
2016-09-14T09:42:54.136Z,1009.82
2016-09-14T09:43:53.906Z,1009.84
2016-09-14T09:44:53.877Z,1009.83
2016-09-14T09:45:53.817Z,1009.85
2016-09-14T09:46:53.774Z,1009.83
2016-09-14T09:47:53.736Z,1009.83
2016-09-14T09:48:53.692Z,1009.86
2016-09-14T09:49:53.668Z,1009.89
2016-09-14T09:50:53.611Z,1009.85
2016-09-14T09:51:53.579Z,1009.85
2016-09-14T09:52:53.553Z,1009.81
2016-09-14T09:53:53.515Z,1009.81
2016-09-14T09:54:53.457Z,1009.87
2016-09-14T09:55:53.425Z,1009.87
2016-09-14T09:56:53.374Z,1009.88
2016-09-14T09:57:53.348Z,1009.84
2016-09-14T09:58:53.293Z,1009.82
2016-09-14T09:59:53.260Z,1009.88
2016-09-14T10:00:53.221Z,1009.87
2016-09-14T10:01:53.172Z,1009.85
2016-09-14T10:02:53.142Z,1009.86
2016-09-14T10:03:53.106Z,1009.85
2016-09-14T10:04:53.063Z,1009.86
2016-09-14T10:05:53.062Z,1009.85
2016-09-14T10:06:52.979Z,1009.87
2016-09-14T10:07:52.938Z,1009.86
2016-09-14T10:08:52.893Z,1009.89
2016-09-14T10:09:52.856Z,1009.9
2016-09-14T10:10:52.821Z,1009.88
2016-09-14T10:11:52.773Z,1009.88
2016-09-14T10:12:52.737Z,1009.84
2016-09-14T10:13:52.703Z,1009.87
2016-09-14T10:14:52.654Z,1009.86
2016-09-14T10:15:52.613Z,1009.85
2016-09-14T10:16:52.573Z,1009.86
2016-09-14T10:17:52.532Z,1009.87
2016-09-14T10:18:52.500Z,1009.88
2016-09-14T10:19:52.457Z,1009.9
2016-09-14T10:20:52.414Z,1009.88
2016-09-14T10:21:52.377Z,1009.89
2016-09-14T10:22:52.336Z,1009.9
2016-09-14T10:23:52.294Z,1009.9
2016-09-14T10:24:52.252Z,1009.89
2016-09-14T10:25:52.217Z,1009.87
2016-09-14T10:26:52.200Z,1009.85
2016-09-14T10:27:52.145Z,1009.84
2016-09-14T10:28:52.099Z,1009.85
2016-09-14T10:29:52.051Z,1009.85
2016-09-14T10:30:52.016Z,1009.86
2016-09-14T10:31:52.076Z,1009.9
2016-09-14T10:32:51.932Z,1009.91
2016-09-14T10:33:51.899Z,1009.9
2016-09-14T10:34:51.861Z,1009.85
2016-09-14T10:35:51.821Z,1009.84
2016-09-14T10:36:51.781Z,1009.86
2016-09-14T10:37:51.740Z,1009.83
2016-09-14T10:38:51.696Z,1009.81
2016-09-14T10:39:51.661Z,1009.76
2016-09-14T10:40:51.614Z,1009.84
2016-09-14T10:41:51.574Z,1009.83
2016-09-14T10:42:51.544Z,1009.77
2016-09-14T10:43:51.500Z,1009.78
2016-09-14T10:44:51.457Z,1009.77
2016-09-14T10:45:51.420Z,1009.79
2016-09-14T10:46:51.377Z,1009.79
2016-09-14T10:47:51.334Z,1009.75
2016-09-14T10:48:51.300Z,1009.79
2016-09-14T10:49:51.261Z,1009.77
2016-09-14T10:50:51.272Z,1009.82
2016-09-14T10:51:51.187Z,1009.78
2016-09-14T10:52:51.149Z,1009.78
2016-09-14T10:53:51.100Z,1009.81
2016-09-14T10:54:51.072Z,1009.82
2016-09-14T10:55:51.028Z,1009.81
2016-09-14T10:56:50.978Z,1009.86
2016-09-14T10:57:50.957Z,1009.81
2016-09-14T10:58:50.901Z,1009.84
2016-09-14T10:59:51.061Z,1009.87
2016-09-14T11:00:50.817Z,1009.83
2016-09-14T11:01:50.792Z,1009.85
2016-09-14T11:02:50.745Z,1009.85
2016-09-14T11:03:50.708Z,1009.87
2016-09-14T11:04:50.669Z,1009.86
2016-09-14T11:05:50.631Z,1009.83
2016-09-14T11:06:50.598Z,1009.86
2016-09-14T11:07:50.547Z,1009.84
2016-09-14T11:08:50.513Z,1009.83
2016-09-14T11:09:50.464Z,1009.84
2016-09-14T11:10:50.436Z,1009.8
2016-09-14T11:11:50.388Z,1009.82
2016-09-14T11:12:50.347Z,1009.84
2016-09-14T11:13:50.313Z,1009.82
2016-09-14T11:14:50.260Z,1009.78
2016-09-14T11:15:50.325Z,1009.84
2016-09-14T11:16:50.194Z,1009.82
2016-09-14T11:17:50.153Z,1009.84
2016-09-14T11:18:50.112Z,1009.83
2016-09-14T11:19:50.076Z,1009.83
2016-09-14T11:20:50.032Z,1009.82
2016-09-14T11:21:49.992Z,1009.86
2016-09-14T11:22:49.950Z,1009.82
2016-09-14T11:23:49.913Z,1009.83
2016-09-14T11:24:49.874Z,1009.81
2016-09-14T11:25:49.831Z,1009.83
2016-09-14T11:26:49.801Z,1009.81
2016-09-14T11:27:49.754Z,1009.8
2016-09-14T11:28:49.743Z,1009.83
2016-09-14T11:29:49.687Z,1009.81
2016-09-14T11:30:49.636Z,1009.82
2016-09-14T11:31:49.612Z,1009.78
2016-09-14T11:32:49.573Z,1009.8
2016-09-14T11:33:49.527Z,1009.82
2016-09-14T11:34:49.482Z,1009.77
2016-09-14T11:35:49.640Z,1009.78
2016-09-14T11:36:49.409Z,1009.81
2016-09-14T11:37:49.386Z,1009.8
2016-09-14T11:38:49.333Z,1009.76
2016-09-14T11:39:49.291Z,1009.77
2016-09-14T11:40:49.248Z,1009.76
2016-09-14T11:41:49.216Z,1009.74
2016-09-14T11:42:49.170Z,1009.78
2016-09-14T11:43:49.128Z,1009.71
2016-09-14T11:44:49.092Z,1009.72
2016-09-14T11:45:49.056Z,1009.72
2016-09-14T11:46:49.012Z,1009.73
2016-09-14T11:47:48.975Z,1009.68
2016-09-14T11:48:48.933Z,1009.71
2016-09-14T11:49:48.903Z,1009.66
2016-09-14T11:50:48.862Z,1009.66
2016-09-14T11:51:48.821Z,1009.65
2016-09-14T11:52:48.786Z,1009.71
2016-09-14T11:53:48.785Z,1009.68
2016-09-14T11:54:48.697Z,1009.68
2016-09-14T11:55:48.663Z,1009.68
2016-09-14T11:56:48.633Z,1009.67
2016-09-14T11:57:48.598Z,1009.67
2016-09-14T11:58:48.555Z,1009.72
2016-09-14T11:59:48.551Z,1009.72
2016-09-14T12:00:48.463Z,1009.71
2016-09-14T12:01:48.426Z,1009.69
2016-09-14T12:02:48.398Z,1009.7
2016-09-14T12:03:48.355Z,1009.73
2016-09-14T12:04:48.313Z,1009.74
2016-09-14T12:05:48.312Z,1009.74
2016-09-14T12:06:48.426Z,1009.7